sensor_id;sensor_type;location;lat;lon;timestamp;P1;durP1;ratioP1;P2;durP2;ratioP2
16965;SDS011;8599;47.852;12.070;2023-05-29T00:00:25;6.73;;;4.37;;
16965;SDS011;8599;47.852;12.070;2023-05-29T00:02:52;7.53;;;5.13;;
16965;SDS011;8599;47.852;12.070;2023-05-29T00:05:19;6.63;;;4.47;;
16965;SDS011;8599;47.852;12.070;2023-05-29T00:07:47;6.53;;;4.47;;
16965;SDS011;8599;47.852;12.070;2023-05-29T00:10:15;6.27;;;3.87;;
16965;SDS011;8599;47.852;12.070;2023-05-29T00:12:42;10.20;;;4.67;;
16965;SDS011;8599;47.852;12.070;2023-05-29T00:15:09;9.47;;;4.87;;
16965;SDS011;8599;47.852;12.070;2023-05-29T00:17:37;9.10;;;4.57;;
16965;SDS011;8599;47.852;12.070;2023-05-29T00:20:05;9.77;;;4.67;;
16965;SDS011;8599;47.852;12.070;2023-05-29T00:22:34;10.07;;;5.57;;
16965;SDS011;8599;47.852;12.070;2023-05-29T00:25:04;10.17;;;4.87;;
16965;SDS011;8599;47.852;12.070;2023-05-29T00:27:32;8.70;;;5.40;;
16965;SDS011;8599;47.852;12.070;2023-05-29T00:29:59;8.07;;;5.30;;
16965;SDS011;8599;47.852;12.070;2023-05-29T00:32:26;10.90;;;4.37;;
16965;SDS011;8599;47.852;12.070;2023-05-29T00:34:53;9.47;;;4.80;;
16965;SDS011;8599;47.852;12.070;2023-05-29T00:37:21;12.50;;;6.40;;
16965;SDS011;8599;47.852;12.070;2023-05-29T00:39:47;9.60;;;4.90;;
16965;SDS011;8599;47.852;12.070;2023-05-29T00:42:16;8.03;;;4.83;;
16965;SDS011;8599;47.852;12.070;2023-05-29T00:44:42;8.43;;;4.90;;
16965;SDS011;8599;47.852;12.070;2023-05-29T00:47:09;7.40;;;4.63;;
16965;SDS011;8599;47.852;12.070;2023-05-29T00:49:36;11.10;;;4.87;;
16965;SDS011;8599;47.852;12.070;2023-05-29T00:52:04;9.47;;;4.80;;
16965;SDS011;8599;47.852;12.070;2023-05-29T00:54:32;9.93;;;4.60;;
16965;SDS011;8599;47.852;12.070;2023-05-29T00:57:01;7.30;;;4.33;;
16965;SDS011;8599;47.852;12.070;2023-05-29T00:59:31;6.80;;;4.63;;
16965;SDS011;8599;47.852;12.070;2023-05-29T01:02:00;7.17;;;4.77;;
16965;SDS011;8599;47.852;12.070;2023-05-29T01:04:28;9.73;;;4.60;;
16965;SDS011;8599;47.852;12.070;2023-05-29T01:06:58;10.37;;;5.23;;
16965;SDS011;8599;47.852;12.070;2023-05-29T01:09:27;12.83;;;4.70;;
16965;SDS011;8599;47.852;12.070;2023-05-29T01:11:57;7.97;;;5.07;;
16965;SDS011;8599;47.852;12.070;2023-05-29T01:14:32;13.47;;;5.10;;
16965;SDS011;8599;47.852;12.070;2023-05-29T01:17:08;6.93;;;4.13;;
16965;SDS011;8599;47.852;12.070;2023-05-29T01:19:46;8.70;;;4.77;;
16965;SDS011;8599;47.852;12.070;2023-05-29T01:22:25;7.97;;;4.73;;
16965;SDS011;8599;47.852;12.070;2023-05-29T01:25:04;11.20;;;4.77;;
16965;SDS011;8599;47.852;12.070;2023-05-29T01:27:40;8.20;;;4.57;;
16965;SDS011;8599;47.852;12.070;2023-05-29T01:30:10;8.57;;;4.63;;
16965;SDS011;8599;47.852;12.070;2023-05-29T01:32:39;7.87;;;4.87;;
16965;SDS011;8599;47.852;12.070;2023-05-29T01:35:07;7.13;;;4.00;;
16965;SDS011;8599;47.852;12.070;2023-05-29T01:37:34;10.50;;;4.53;;
16965;SDS011;8599;47.852;12.070;2023-05-29T01:40:01;7.10;;;4.50;;
16965;SDS011;8599;47.852;12.070;2023-05-29T01:42:29;7.33;;;4.60;;
16965;SDS011;8599;47.852;12.070;2023-05-29T01:44:57;10.87;;;4.27;;
16965;SDS011;8599;47.852;12.070;2023-05-29T01:47:25;8.10;;;4.10;;
16965;SDS011;8599;47.852;12.070;2023-05-29T01:49:52;7.80;;;4.40;;
16965;SDS011;8599;47.852;12.070;2023-05-29T01:52:20;8.17;;;3.70;;
16965;SDS011;8599;47.852;12.070;2023-05-29T01:54:47;6.80;;;4.27;;
16965;SDS011;8599;47.852;12.070;2023-05-29T01:57:14;6.37;;;4.47;;
16965;SDS011;8599;47.852;12.070;2023-05-29T01:59:42;5.57;;;4.10;;
16965;SDS011;8599;47.852;12.070;2023-05-29T02:02:10;6.63;;;3.87;;
16965;SDS011;8599;47.852;12.070;2023-05-29T02:04:37;7.80;;;4.00;;
16965;SDS011;8599;47.852;12.070;2023-05-29T02:07:04;5.63;;;3.73;;
16965;SDS011;8599;47.852;12.070;2023-05-29T02:09:31;15.63;;;4.90;;
16965;SDS011;8599;47.852;12.070;2023-05-29T02:11:58;5.60;;;4.13;;
16965;SDS011;8599;47.852;12.070;2023-05-29T02:14:25;5.63;;;3.87;;
16965;SDS011;8599;47.852;12.070;2023-05-29T02:16:52;8.43;;;3.67;;
16965;SDS011;8599;47.852;12.070;2023-05-29T02:19:20;6.43;;;4.60;;
16965;SDS011;8599;47.852;12.070;2023-05-29T02:21:50;6.63;;;3.80;;
16965;SDS011;8599;47.852;12.070;2023-05-29T02:24:17;6.97;;;4.10;;
16965;SDS011;8599;47.852;12.070;2023-05-29T02:26:45;10.77;;;4.20;;
16965;SDS011;8599;47.852;12.070;2023-05-29T02:29:14;6.20;;;3.80;;
16965;SDS011;8599;47.852;12.070;2023-05-29T02:31:41;8.20;;;4.00;;
16965;SDS011;8599;47.852;12.070;2023-05-29T02:34:07;6.43;;;3.73;;
16965;SDS011;8599;47.852;12.070;2023-05-29T02:36:35;9.33;;;3.70;;
16965;SDS011;8599;47.852;12.070;2023-05-29T02:39:03;7.77;;;4.17;;
16965;SDS011;8599;47.852;12.070;2023-05-29T02:41:30;8.17;;;4.30;;
16965;SDS011;8599;47.852;12.070;2023-05-29T02:43:57;6.97;;;3.33;;
16965;SDS011;8599;47.852;12.070;2023-05-29T02:46:23;8.00;;;3.43;;
16965;SDS011;8599;47.852;12.070;2023-05-29T02:48:50;9.87;;;3.70;;
16965;SDS011;8599;47.852;12.070;2023-05-29T02:51:17;7.83;;;3.77;;
16965;SDS011;8599;47.852;12.070;2023-05-29T02:53:45;8.17;;;4.33;;
16965;SDS011;8599;47.852;12.070;2023-05-29T02:56:13;5.60;;;3.80;;
16965;SDS011;8599;47.852;12.070;2023-05-29T02:58:42;6.30;;;3.53;;
16965;SDS011;8599;47.852;12.070;2023-05-29T03:01:08;9.17;;;4.47;;
16965;SDS011;8599;47.852;12.070;2023-05-29T03:03:35;6.83;;;3.50;;
16965;SDS011;8599;47.852;12.070;2023-05-29T03:06:02;8.63;;;3.77;;
16965;SDS011;8599;47.852;12.070;2023-05-29T03:08:29;4.43;;;3.37;;
16965;SDS011;8599;47.852;12.070;2023-05-29T03:10:57;6.20;;;3.70;;
16965;SDS011;8599;47.852;12.070;2023-05-29T03:13:24;6.27;;;3.80;;
16965;SDS011;8599;47.852;12.070;2023-05-29T03:15:51;5.87;;;3.63;;
16965;SDS011;8599;47.852;12.070;2023-05-29T03:18:21;3.73;;;3.00;;
16965;SDS011;8599;47.852;12.070;2023-05-29T03:20:48;5.23;;;4.10;;
16965;SDS011;8599;47.852;12.070;2023-05-29T03:23:15;5.60;;;3.40;;
16965;SDS011;8599;47.852;12.070;2023-05-29T03:25:42;6.03;;;3.43;;
16965;SDS011;8599;47.852;12.070;2023-05-29T03:28:10;8.90;;;3.67;;
16965;SDS011;8599;47.852;12.070;2023-05-29T03:30:37;7.63;;;4.00;;
16965;SDS011;8599;47.852;12.070;2023-05-29T03:33:04;6.00;;;3.57;;
16965;SDS011;8599;47.852;12.070;2023-05-29T03:35:30;7.17;;;3.53;;
16965;SDS011;8599;47.852;12.070;2023-05-29T03:37:57;4.53;;;3.60;;
16965;SDS011;8599;47.852;12.070;2023-05-29T03:40:24;4.70;;;3.47;;
16965;SDS011;8599;47.852;12.070;2023-05-29T03:42:51;10.97;;;3.97;;
16965;SDS011;8599;47.852;12.070;2023-05-29T03:45:19;5.00;;;3.40;;
16965;SDS011;8599;47.852;12.070;2023-05-29T03:47:46;7.17;;;3.67;;
16965;SDS011;8599;47.852;12.070;2023-05-29T03:50:12;7.77;;;4.00;;
16965;SDS011;8599;47.852;12.070;2023-05-29T03:52:40;6.40;;;3.80;;
16965;SDS011;8599;47.852;12.070;2023-05-29T03:55:08;7.47;;;3.73;;
16965;SDS011;8599;47.852;12.070;2023-05-29T03:57:38;6.33;;;3.77;;
16965;SDS011;8599;47.852;12.070;2023-05-29T04:00:05;6.53;;;3.73;;
16965;SDS011;8599;47.852;12.070;2023-05-29T04:02:36;6.87;;;3.80;;
16965;SDS011;8599;47.852;12.070;2023-05-29T04:05:04;8.83;;;3.70;;
16965;SDS011;8599;47.852;12.070;2023-05-29T04:07:31;5.87;;;3.60;;
16965;SDS011;8599;47.852;12.070;2023-05-29T04:09:58;7.83;;;3.90;;
16965;SDS011;8599;47.852;12.070;2023-05-29T04:12:25;7.77;;;3.87;;
16965;SDS011;8599;47.852;12.070;2023-05-29T04:14:51;6.23;;;4.10;;
16965;SDS011;8599;47.852;12.070;2023-05-29T04:17:18;7.40;;;4.00;;
16965;SDS011;8599;47.852;12.070;2023-05-29T04:19:46;6.43;;;3.97;;
16965;SDS011;8599;47.852;12.070;2023-05-29T04:22:13;7.53;;;4.23;;
16965;SDS011;8599;47.852;12.070;2023-05-29T04:24:40;7.47;;;3.67;;
16965;SDS011;8599;47.852;12.070;2023-05-29T04:27:07;7.40;;;4.20;;
16965;SDS011;8599;47.852;12.070;2023-05-29T04:29:38;6.10;;;3.80;;
16965;SDS011;8599;47.852;12.070;2023-05-29T04:32:05;6.30;;;3.77;;
16965;SDS011;8599;47.852;12.070;2023-05-29T04:34:33;7.23;;;4.10;;
16965;SDS011;8599;47.852;12.070;2023-05-29T04:37:01;5.17;;;3.80;;
16965;SDS011;8599;47.852;12.070;2023-05-29T04:39:28;7.57;;;3.73;;
16965;SDS011;8599;47.852;12.070;2023-05-29T04:41:56;10.00;;;4.83;;
16965;SDS011;8599;47.852;12.070;2023-05-29T04:44:24;5.90;;;4.17;;
16965;SDS011;8599;47.852;12.070;2023-05-29T04:46:51;7.17;;;3.60;;
16965;SDS011;8599;47.852;12.070;2023-05-29T04:49:18;11.20;;;4.50;;
16965;SDS011;8599;47.852;12.070;2023-05-29T04:51:45;6.53;;;3.67;;
16965;SDS011;8599;47.852;12.070;2023-05-29T04:54:13;6.03;;;3.63;;
16965;SDS011;8599;47.852;12.070;2023-05-29T04:56:41;10.40;;;4.13;;
16965;SDS011;8599;47.852;12.070;2023-05-29T04:59:08;8.30;;;3.93;;
16965;SDS011;8599;47.852;12.070;2023-05-29T05:01:35;11.23;;;4.20;;
16965;SDS011;8599;47.852;12.070;2023-05-29T05:04:02;9.33;;;3.83;;
16965;SDS011;8599;47.852;12.070;2023-05-29T05:06:28;7.57;;;3.93;;
16965;SDS011;8599;47.852;12.070;2023-05-29T05:08:55;11.03;;;4.13;;
16965;SDS011;8599;47.852;12.070;2023-05-29T05:11:23;6.67;;;3.80;;
16965;SDS011;8599;47.852;12.070;2023-05-29T05:13:50;5.40;;;3.53;;
16965;SDS011;8599;47.852;12.070;2023-05-29T05:16:17;8.57;;;3.83;;
16965;SDS011;8599;47.852;12.070;2023-05-29T05:18:44;5.97;;;4.10;;
16965;SDS011;8599;47.852;12.070;2023-05-29T05:21:11;7.97;;;4.10;;
16965;SDS011;8599;47.852;12.070;2023-05-29T05:23:38;5.73;;;3.70;;
16965;SDS011;8599;47.852;12.070;2023-05-29T05:26:05;6.83;;;3.97;;
16965;SDS011;8599;47.852;12.070;2023-05-29T05:28:33;10.37;;;4.37;;
16965;SDS011;8599;47.852;12.070;2023-05-29T05:31:00;6.17;;;3.53;;
16965;SDS011;8599;47.852;12.070;2023-05-29T05:33:27;6.63;;;4.07;;
16965;SDS011;8599;47.852;12.070;2023-05-29T05:35:54;7.43;;;4.10;;
16965;SDS011;8599;47.852;12.070;2023-05-29T05:38:21;7.93;;;4.03;;
16965;SDS011;8599;47.852;12.070;2023-05-29T05:40:48;7.53;;;4.23;;
16965;SDS011;8599;47.852;12.070;2023-05-29T05:43:14;5.60;;;4.17;;
16965;SDS011;8599;47.852;12.070;2023-05-29T05:45:42;8.23;;;4.30;;
16965;SDS011;8599;47.852;12.070;2023-05-29T05:48:09;5.77;;;4.00;;
16965;SDS011;8599;47.852;12.070;2023-05-29T05:50:36;7.27;;;3.90;;
16965;SDS011;8599;47.852;12.070;2023-05-29T05:53:03;7.37;;;3.90;;
16965;SDS011;8599;47.852;12.070;2023-05-29T05:55:30;7.90;;;3.90;;
16965;SDS011;8599;47.852;12.070;2023-05-29T05:57:57;10.60;;;4.03;;
16965;SDS011;8599;47.852;12.070;2023-05-29T06:00:24;13.03;;;4.83;;
16965;SDS011;8599;47.852;12.070;2023-05-29T06:02:52;5.83;;;3.97;;
16965;SDS011;8599;47.852;12.070;2023-05-29T06:05:19;9.23;;;5.13;;
16965;SDS011;8599;47.852;12.070;2023-05-29T06:07:45;6.90;;;4.23;;
16965;SDS011;8599;47.852;12.070;2023-05-29T06:10:12;7.47;;;4.20;;
16965;SDS011;8599;47.852;12.070;2023-05-29T06:12:39;8.10;;;4.43;;
16965;SDS011;8599;47.852;12.070;2023-05-29T06:15:06;5.50;;;4.07;;
16965;SDS011;8599;47.852;12.070;2023-05-29T06:17:34;13.03;;;4.70;;
16965;SDS011;8599;47.852;12.070;2023-05-29T06:20:02;6.00;;;4.00;;
16965;SDS011;8599;47.852;12.070;2023-05-29T06:22:34;9.07;;;4.17;;
16965;SDS011;8599;47.852;12.070;2023-05-29T06:25:01;5.00;;;4.07;;
16965;SDS011;8599;47.852;12.070;2023-05-29T06:27:28;7.47;;;4.40;;
16965;SDS011;8599;47.852;12.070;2023-05-29T06:29:55;5.43;;;4.20;;
16965;SDS011;8599;47.852;12.070;2023-05-29T06:32:21;10.10;;;4.97;;
16965;SDS011;8599;47.852;12.070;2023-05-29T06:34:48;10.13;;;4.80;;
16965;SDS011;8599;47.852;12.070;2023-05-29T06:37:16;7.33;;;4.60;;
16965;SDS011;8599;47.852;12.070;2023-05-29T06:39:44;9.73;;;4.53;;
16965;SDS011;8599;47.852;12.070;2023-05-29T06:42:11;6.87;;;4.67;;
16965;SDS011;8599;47.852;12.070;2023-05-29T06:44:38;10.10;;;4.37;;
16965;SDS011;8599;47.852;12.070;2023-05-29T06:47:05;7.00;;;4.67;;
16965;SDS011;8599;47.852;12.070;2023-05-29T06:49:32;7.07;;;4.40;;
16965;SDS011;8599;47.852;12.070;2023-05-29T06:51:59;7.37;;;5.17;;
16965;SDS011;8599;47.852;12.070;2023-05-29T06:54:27;7.67;;;4.90;;
16965;SDS011;8599;47.852;12.070;2023-05-29T06:56:54;11.47;;;4.40;;
16965;SDS011;8599;47.852;12.070;2023-05-29T06:59:21;11.77;;;4.97;;
16965;SDS011;8599;47.852;12.070;2023-05-29T07:01:48;7.93;;;4.60;;
16965;SDS011;8599;47.852;12.070;2023-05-29T07:04:15;11.00;;;4.50;;
16965;SDS011;8599;47.852;12.070;2023-05-29T07:06:42;10.33;;;4.97;;
16965;SDS011;8599;47.852;12.070;2023-05-29T07:09:09;9.60;;;4.20;;
16965;SDS011;8599;47.852;12.070;2023-05-29T07:11:37;9.23;;;4.50;;
16965;SDS011;8599;47.852;12.070;2023-05-29T07:14:04;10.03;;;4.40;;
16965;SDS011;8599;47.852;12.070;2023-05-29T07:16:31;6.80;;;4.50;;
16965;SDS011;8599;47.852;12.070;2023-05-29T07:18:58;8.97;;;4.67;;
16965;SDS011;8599;47.852;12.070;2023-05-29T07:21:25;8.27;;;5.07;;
16965;SDS011;8599;47.852;12.070;2023-05-29T07:23:52;7.87;;;4.13;;
16965;SDS011;8599;47.852;12.070;2023-05-29T07:26:19;10.27;;;5.40;;
16965;SDS011;8599;47.852;12.070;2023-05-29T07:28:49;9.60;;;4.87;;
16965;SDS011;8599;47.852;12.070;2023-05-29T07:31:16;8.23;;;5.03;;
16965;SDS011;8599;47.852;12.070;2023-05-29T07:33:42;6.17;;;4.23;;
16965;SDS011;8599;47.852;12.070;2023-05-29T07:36:10;6.77;;;4.87;;
16965;SDS011;8599;47.852;12.070;2023-05-29T07:38:37;7.73;;;4.60;;
16965;SDS011;8599;47.852;12.070;2023-05-29T07:41:04;11.07;;;4.57;;
16965;SDS011;8599;47.852;12.070;2023-05-29T07:43:31;5.90;;;4.20;;
16965;SDS011;8599;47.852;12.070;2023-05-29T07:45:59;9.17;;;4.70;;
16965;SDS011;8599;47.852;12.070;2023-05-29T07:48:26;8.73;;;4.20;;
16965;SDS011;8599;47.852;12.070;2023-05-29T07:50:53;9.80;;;4.93;;
16965;SDS011;8599;47.852;12.070;2023-05-29T07:53:19;16.80;;;6.67;;
16965;SDS011;8599;47.852;12.070;2023-05-29T07:55:46;10.67;;;4.53;;
16965;SDS011;8599;47.852;12.070;2023-05-29T07:58:13;7.03;;;4.30;;
16965;SDS011;8599;47.852;12.070;2023-05-29T08:00:41;8.37;;;4.27;;
16965;SDS011;8599;47.852;12.070;2023-05-29T08:03:11;8.60;;;4.70;;
16965;SDS011;8599;47.852;12.070;2023-05-29T08:05:37;11.23;;;4.50;;
16965;SDS011;8599;47.852;12.070;2023-05-29T08:08:04;7.67;;;4.23;;
16965;SDS011;8599;47.852;12.070;2023-05-29T08:10:31;5.90;;;3.97;;
16965;SDS011;8599;47.852;12.070;2023-05-29T08:12:58;7.73;;;4.77;;
16965;SDS011;8599;47.852;12.070;2023-05-29T08:15:25;15.13;;;5.00;;
16965;SDS011;8599;47.852;12.070;2023-05-29T08:17:51;8.00;;;4.87;;
16965;SDS011;8599;47.852;12.070;2023-05-29T08:20:20;8.07;;;4.83;;
16965;SDS011;8599;47.852;12.070;2023-05-29T08:22:46;9.87;;;5.27;;
16965;SDS011;8599;47.852;12.070;2023-05-29T08:25:13;17.23;;;4.47;;
16965;SDS011;8599;47.852;12.070;2023-05-29T08:27:40;8.87;;;5.37;;
16965;SDS011;8599;47.852;12.070;2023-05-29T08:30:07;9.53;;;4.90;;
16965;SDS011;8599;47.852;12.070;2023-05-29T08:32:34;11.93;;;4.93;;
16965;SDS011;8599;47.852;12.070;2023-05-29T08:35:01;9.93;;;5.40;;
16965;SDS011;8599;47.852;12.070;2023-05-29T08:37:30;10.87;;;5.27;;
16965;SDS011;8599;47.852;12.070;2023-05-29T08:39:57;8.73;;;4.83;;
16965;SDS011;8599;47.852;12.070;2023-05-29T08:42:26;10.00;;;5.30;;
16965;SDS011;8599;47.852;12.070;2023-05-29T08:44:58;11.07;;;4.50;;
16965;SDS011;8599;47.852;12.070;2023-05-29T08:47:30;7.33;;;4.67;;
16965;SDS011;8599;47.852;12.070;2023-05-29T08:50:00;8.87;;;4.60;;
16965;SDS011;8599;47.852;12.070;2023-05-29T08:52:27;7.80;;;5.10;;
16965;SDS011;8599;47.852;12.070;2023-05-29T08:55:00;8.50;;;4.60;;
16965;SDS011;8599;47.852;12.070;2023-05-29T08:57:27;7.37;;;4.23;;
16965;SDS011;8599;47.852;12.070;2023-05-29T08:59:55;8.00;;;4.57;;
16965;SDS011;8599;47.852;12.070;2023-05-29T09:02:23;7.07;;;4.50;;
16965;SDS011;8599;47.852;12.070;2023-05-29T09:04:49;7.27;;;4.67;;
16965;SDS011;8599;47.852;12.070;2023-05-29T09:07:18;7.63;;;4.47;;
16965;SDS011;8599;47.852;12.070;2023-05-29T09:09:48;6.47;;;4.40;;
16965;SDS011;8599;47.852;12.070;2023-05-29T09:12:15;6.93;;;4.37;;
16965;SDS011;8599;47.852;12.070;2023-05-29T09:14:42;7.70;;;4.00;;
16965;SDS011;8599;47.852;12.070;2023-05-29T09:17:10;9.97;;;4.57;;
16965;SDS011;8599;47.852;12.070;2023-05-29T09:19:38;9.37;;;4.37;;
16965;SDS011;8599;47.852;12.070;2023-05-29T09:22:06;8.20;;;4.60;;
16965;SDS011;8599;47.852;12.070;2023-05-29T09:24:35;9.30;;;4.30;;
16965;SDS011;8599;47.852;12.070;2023-05-29T09:27:05;10.00;;;4.80;;
16965;SDS011;8599;47.852;12.070;2023-05-29T09:29:33;7.87;;;4.47;;
16965;SDS011;8599;47.852;12.070;2023-05-29T09:32:05;10.90;;;4.70;;
16965;SDS011;8599;47.852;12.070;2023-05-29T09:34:33;11.10;;;4.53;;
16965;SDS011;8599;47.852;12.070;2023-05-29T09:37:00;8.63;;;4.43;;
16965;SDS011;8599;47.852;12.070;2023-05-29T09:39:33;10.32;;;4.90;;
16965;SDS011;8599;47.852;12.070;2023-05-29T09:42:00;18.00;;;3.75;;
16965;SDS011;8599;47.852;12.070;2023-05-29T09:44:29;8.40;;;3.93;;
16965;SDS011;8599;47.852;12.070;2023-05-29T09:46:57;11.25;;;4.15;;
16965;SDS011;8599;47.852;12.070;2023-05-29T09:49:25;7.55;;;4.05;;
16965;SDS011;8599;47.852;12.070;2023-05-29T09:51:53;7.35;;;4.45;;
16965;SDS011;8599;47.852;12.070;2023-05-29T09:54:20;7.70;;;4.35;;
16965;SDS011;8599;47.852;12.070;2023-05-29T09:56:47;10.93;;;4.25;;
16965;SDS011;8599;47.852;12.070;2023-05-29T09:59:14;6.90;;;4.13;;
16965;SDS011;8599;47.852;12.070;2023-05-29T10:01:44;10.07;;;4.45;;
16965;SDS011;8599;47.852;12.070;2023-05-29T10:04:11;7.20;;;4.10;;
16965;SDS011;8599;47.852;12.070;2023-05-29T10:06:40;6.38;;;4.30;;
16965;SDS011;8599;47.852;12.070;2023-05-29T10:09:12;8.02;;;4.25;;
16965;SDS011;8599;47.852;12.070;2023-05-29T10:11:41;5.18;;;4.22;;
16965;SDS011;8599;47.852;12.070;2023-05-29T10:14:10;7.72;;;4.00;;
16965;SDS011;8599;47.852;12.070;2023-05-29T10:16:46;7.63;;;4.53;;
16965;SDS011;8599;47.852;12.070;2023-05-29T10:19:15;7.75;;;4.50;;
16965;SDS011;8599;47.852;12.070;2023-05-29T10:21:48;6.32;;;3.92;;
16965;SDS011;8599;47.852;12.070;2023-05-29T10:24:17;6.88;;;4.07;;
16965;SDS011;8599;47.852;12.070;2023-05-29T10:26:46;7.55;;;3.80;;
16965;SDS011;8599;47.852;12.070;2023-05-29T10:29:17;5.78;;;3.47;;
16965;SDS011;8599;47.852;12.070;2023-05-29T10:31:52;6.30;;;3.47;;
16965;SDS011;8599;47.852;12.070;2023-05-29T10:34:31;5.20;;;3.67;;
16965;SDS011;8599;47.852;12.070;2023-05-29T10:37:04;5.82;;;3.63;;
16965;SDS011;8599;47.852;12.070;2023-05-29T10:39:35;10.77;;;3.65;;
16965;SDS011;8599;47.852;12.070;2023-05-29T10:42:02;6.93;;;3.75;;
16965;SDS011;8599;47.852;12.070;2023-05-29T10:45:09;5.93;;;3.30;;
16965;SDS011;8599;47.852;12.070;2023-05-29T10:47:38;5.80;;;3.60;;
16965;SDS011;8599;47.852;12.070;2023-05-29T10:50:05;8.13;;;3.70;;
16965;SDS011;8599;47.852;12.070;2023-05-29T10:52:32;5.63;;;3.42;;
16965;SDS011;8599;47.852;12.070;2023-05-29T10:55:00;6.38;;;3.95;;
16965;SDS011;8599;47.852;12.070;2023-05-29T10:57:29;4.80;;;3.60;;
16965;SDS011;8599;47.852;12.070;2023-05-29T11:00:04;10.50;;;3.83;;
16965;SDS011;8599;47.852;12.070;2023-05-29T11:02:40;4.15;;;3.10;;
16965;SDS011;8599;47.852;12.070;2023-05-29T11:05:23;6.72;;;3.92;;
16965;SDS011;8599;47.852;12.070;2023-05-29T11:07:51;8.27;;;3.58;;
16965;SDS011;8599;47.852;12.070;2023-05-29T11:13:08;5.90;;;4.03;;
16965;SDS011;8599;47.852;12.070;2023-05-29T11:15:36;7.28;;;3.63;;
16965;SDS011;8599;47.852;12.070;2023-05-29T11:18:07;7.78;;;4.25;;
16965;SDS011;8599;47.852;12.070;2023-05-29T11:20:41;7.65;;;3.67;;
16965;SDS011;8599;47.852;12.070;2023-05-29T11:23:16;15.52;;;3.83;;
16965;SDS011;8599;47.852;12.070;2023-05-29T11:25:44;7.38;;;3.80;;
16965;SDS011;8599;47.852;12.070;2023-05-29T11:28:12;8.00;;;4.25;;
16965;SDS011;8599;47.852;12.070;2023-05-29T11:30:41;7.07;;;3.80;;
16965;SDS011;8599;47.852;12.070;2023-05-29T11:33:15;9.93;;;3.30;;
16965;SDS011;8599;47.852;12.070;2023-05-29T11:35:49;8.40;;;3.97;;
16965;SDS011;8599;47.852;12.070;2023-05-29T11:38:21;8.38;;;3.42;;
16965;SDS011;8599;47.852;12.070;2023-05-29T11:40:48;7.00;;;3.97;;
16965;SDS011;8599;47.852;12.070;2023-05-29T11:43:15;5.35;;;3.20;;
16965;SDS011;8599;47.852;12.070;2023-05-29T11:45:42;6.75;;;4.25;;
16965;SDS011;8599;47.852;12.070;2023-05-29T11:48:09;5.35;;;3.50;;
16965;SDS011;8599;47.852;12.070;2023-05-29T11:50:37;8.38;;;3.55;;
16965;SDS011;8599;47.852;12.070;2023-05-29T11:53:05;5.93;;;3.60;;
16965;SDS011;8599;47.852;12.070;2023-05-29T11:55:33;6.65;;;4.18;;
16965;SDS011;8599;47.852;12.070;2023-05-29T11:58:01;9.45;;;4.13;;
16965;SDS011;8599;47.852;12.070;2023-05-29T12:00:30;7.18;;;3.35;;
16965;SDS011;8599;47.852;12.070;2023-05-29T12:02:58;18.52;;;3.47;;
16965;SDS011;8599;47.852;12.070;2023-05-29T12:05:28;6.43;;;3.90;;
16965;SDS011;8599;47.852;12.070;2023-05-29T12:07:58;8.15;;;3.55;;
16965;SDS011;8599;47.852;12.070;2023-05-29T12:10:27;6.57;;;3.58;;
16965;SDS011;8599;47.852;12.070;2023-05-29T12:12:55;4.72;;;3.20;;
16965;SDS011;8599;47.852;12.070;2023-05-29T12:15:24;9.40;;;3.78;;
16965;SDS011;8599;47.852;12.070;2023-05-29T12:17:51;5.82;;;3.50;;
16965;SDS011;8599;47.852;12.070;2023-05-29T12:20:19;7.18;;;3.58;;
16965;SDS011;8599;47.852;12.070;2023-05-29T12:22:48;5.90;;;3.75;;
16965;SDS011;8599;47.852;12.070;2023-05-29T12:25:17;7.93;;;3.40;;
16965;SDS011;8599;47.852;12.070;2023-05-29T12:27:46;7.68;;;4.07;;
16965;SDS011;8599;47.852;12.070;2023-05-29T12:30:14;7.75;;;3.83;;
16965;SDS011;8599;47.852;12.070;2023-05-29T12:32:47;6.40;;;3.50;;
16965;SDS011;8599;47.852;12.070;2023-05-29T12:35:15;6.32;;;3.65;;
16965;SDS011;8599;47.852;12.070;2023-05-29T12:37:44;5.63;;;3.85;;
16965;SDS011;8599;47.852;12.070;2023-05-29T12:40:17;4.85;;;3.65;;
16965;SDS011;8599;47.852;12.070;2023-05-29T12:42:45;10.65;;;3.75;;
16965;SDS011;8599;47.852;12.070;2023-05-29T12:45:13;6.38;;;3.50;;
16965;SDS011;8599;47.852;12.070;2023-05-29T12:47:50;5.60;;;3.28;;
16965;SDS011;8599;47.852;12.070;2023-05-29T12:50:24;9.23;;;3.75;;
16965;SDS011;8599;47.852;12.070;2023-05-29T12:52:52;5.65;;;3.38;;
16965;SDS011;8599;47.852;12.070;2023-05-29T12:55:24;6.13;;;3.47;;
16965;SDS011;8599;47.852;12.070;2023-05-29T12:57:52;6.90;;;3.45;;
16965;SDS011;8599;47.852;12.070;2023-05-29T13:00:19;4.93;;;3.55;;
16965;SDS011;8599;47.852;12.070;2023-05-29T13:02:47;4.63;;;3.20;;
16965;SDS011;8599;47.852;12.070;2023-05-29T13:05:14;6.13;;;3.22;;
16965;SDS011;8599;47.852;12.070;2023-05-29T13:07:43;5.88;;;3.67;;
16965;SDS011;8599;47.852;12.070;2023-05-29T13:10:12;7.60;;;3.90;;
16965;SDS011;8599;47.852;12.070;2023-05-29T13:12:40;6.80;;;3.70;;
16965;SDS011;8599;47.852;12.070;2023-05-29T13:15:07;5.75;;;3.25;;
16965;SDS011;8599;47.852;12.070;2023-05-29T13:17:34;6.95;;;3.78;;
16965;SDS011;8599;47.852;12.070;2023-05-29T13:20:01;5.72;;;3.42;;
16965;SDS011;8599;47.852;12.070;2023-05-29T13:22:31;4.82;;;3.05;;
16965;SDS011;8599;47.852;12.070;2023-05-29T13:24:58;9.50;;;3.67;;
16965;SDS011;8599;47.852;12.070;2023-05-29T13:27:25;10.15;;;4.10;;
16965;SDS011;8599;47.852;12.070;2023-05-29T13:29:53;7.03;;;3.38;;
16965;SDS011;8599;47.852;12.070;2023-05-29T13:32:20;6.95;;;3.45;;
16965;SDS011;8599;47.852;12.070;2023-05-29T13:34:47;6.60;;;3.13;;
16965;SDS011;8599;47.852;12.070;2023-05-29T13:37:14;5.43;;;3.33;;
16965;SDS011;8599;47.852;12.070;2023-05-29T13:39:40;5.57;;;2.92;;
16965;SDS011;8599;47.852;12.070;2023-05-29T13:42:07;6.15;;;3.30;;
16965;SDS011;8599;47.852;12.070;2023-05-29T13:44:36;6.00;;;3.63;;
16965;SDS011;8599;47.852;12.070;2023-05-29T13:47:05;5.40;;;3.97;;
16965;SDS011;8599;47.852;12.070;2023-05-29T13:49:32;8.18;;;3.40;;
16965;SDS011;8599;47.852;12.070;2023-05-29T13:51:59;6.78;;;3.55;;
16965;SDS011;8599;47.852;12.070;2023-05-29T13:54:26;6.22;;;3.22;;
16965;SDS011;8599;47.852;12.070;2023-05-29T13:56:54;5.57;;;3.28;;
16965;SDS011;8599;47.852;12.070;2023-05-29T13:59:22;4.18;;;3.22;;
16965;SDS011;8599;47.852;12.070;2023-05-29T14:01:49;9.35;;;3.33;;
16965;SDS011;8599;47.852;12.070;2023-05-29T14:04:17;4.68;;;3.03;;
16965;SDS011;8599;47.852;12.070;2023-05-29T14:06:44;4.80;;;2.70;;
16965;SDS011;8599;47.852;12.070;2023-05-29T14:09:10;4.45;;;3.33;;
16965;SDS011;8599;47.852;12.070;2023-05-29T14:11:38;7.22;;;2.88;;
16965;SDS011;8599;47.852;12.070;2023-05-29T14:14:05;4.50;;;2.85;;
16965;SDS011;8599;47.852;12.070;2023-05-29T14:16:32;5.43;;;3.20;;
16965;SDS011;8599;47.852;12.070;2023-05-29T14:18:59;5.30;;;3.15;;
16965;SDS011;8599;47.852;12.070;2023-05-29T14:21:27;5.80;;;3.30;;
16965;SDS011;8599;47.852;12.070;2023-05-29T14:23:54;4.35;;;2.97;;
16965;SDS011;8599;47.852;12.070;2023-05-29T14:26:21;4.07;;;3.10;;
16965;SDS011;8599;47.852;12.070;2023-05-29T14:28:48;5.10;;;3.20;;
16965;SDS011;8599;47.852;12.070;2023-05-29T14:31:15;5.45;;;3.42;;
16965;SDS011;8599;47.852;12.070;2023-05-29T14:33:41;5.32;;;3.45;;
16965;SDS011;8599;47.852;12.070;2023-05-29T14:36:08;5.32;;;3.00;;
16965;SDS011;8599;47.852;12.070;2023-05-29T14:38:36;4.63;;;2.97;;
16965;SDS011;8599;47.852;12.070;2023-05-29T14:41:03;5.75;;;3.20;;
16965;SDS011;8599;47.852;12.070;2023-05-29T14:43:31;5.47;;;3.17;;
16965;SDS011;8599;47.852;12.070;2023-05-29T14:45:58;3.78;;;2.78;;
16965;SDS011;8599;47.852;12.070;2023-05-29T14:48:25;5.95;;;3.10;;
16965;SDS011;8599;47.852;12.070;2023-05-29T14:50:51;3.67;;;2.85;;
16965;SDS011;8599;47.852;12.070;2023-05-29T14:53:18;3.65;;;2.85;;